createdAt,value
2022-12-20T00:02:08.163Z,1.10
2022-12-20T00:04:36.590Z,1.63
2022-12-20T00:07:04.852Z,1.17
2022-12-20T00:09:33.141Z,1.40
2022-12-20T00:12:01.436Z,1.17
2022-12-20T00:14:31.059Z,1.17
2022-12-20T00:16:59.367Z,1.00
2022-12-20T00:19:27.655Z,1.87
2022-12-20T00:21:55.915Z,1.10
2022-12-20T00:24:26.487Z,1.00
2022-12-20T00:26:54.976Z,1.30
2022-12-20T00:29:23.267Z,1.17
2022-12-20T00:31:53.023Z,1.17
2022-12-20T00:34:21.365Z,1.10
2022-12-20T00:36:49.646Z,0.87
2022-12-20T00:39:17.931Z,1.17
2022-12-20T00:41:46.219Z,1.00
2022-12-20T00:44:14.499Z,1.07
2022-12-20T00:46:42.842Z,1.10
2022-12-20T00:49:12.524Z,1.40
2022-12-20T00:51:40.797Z,0.97
2022-12-20T00:54:09.092Z,0.83
2022-12-20T00:56:37.374Z,1.13
2022-12-20T00:59:05.691Z,0.80
2022-12-20T01:01:35.640Z,0.90
2022-12-20T01:04:04.125Z,0.80
2022-12-20T01:06:33.727Z,1.10
2022-12-20T01:09:02.062Z,0.90
2022-12-20T01:11:30.686Z,0.70
2022-12-20T01:13:59.517Z,0.60
2022-12-20T01:16:28.247Z,1.03
2022-12-20T01:18:56.535Z,1.53
2022-12-20T01:21:25.387Z,0.70
2022-12-20T01:23:55.019Z,1.20
2022-12-20T01:26:23.800Z,0.80
2022-12-20T01:28:54.000Z,1.00
2022-12-20T01:31:22.390Z,0.67
2022-12-20T01:33:50.905Z,0.80
2022-12-20T01:36:19.654Z,0.90
2022-12-20T01:38:48.041Z,1.13
2022-12-20T01:41:18.152Z,0.77
2022-12-20T01:43:47.353Z,0.97
2022-12-20T01:46:15.669Z,0.83
2022-12-20T01:48:44.154Z,1.00
2022-12-20T01:51:12.414Z,0.80
2022-12-20T01:53:40.681Z,0.97
2022-12-20T01:56:09.315Z,0.50
2022-12-20T01:58:39.085Z,0.83
2022-12-20T02:01:07.555Z,0.90
2022-12-20T02:03:35.974Z,1.23
2022-12-20T02:06:17.563Z,1.20
2022-12-20T02:08:45.869Z,0.70
2022-12-20T02:11:16.609Z,0.77
2022-12-20T02:13:47.625Z,1.07
2022-12-20T02:16:16.280Z,0.70
2022-12-20T02:18:45.463Z,0.83
2022-12-20T02:21:15.670Z,0.70
2022-12-20T02:23:54.728Z,1.07
2022-12-20T02:26:34.266Z,0.73
2022-12-20T02:29:12.582Z,1.07
2022-12-20T02:31:45.039Z,0.57
2022-12-20T02:34:13.377Z,1.00
2022-12-20T02:36:41.708Z,0.90
2022-12-20T02:39:10.572Z,0.80
2022-12-20T02:41:39.293Z,0.80
2022-12-20T02:44:27.820Z,0.70
2022-12-20T02:46:57.554Z,0.50
2022-12-20T02:49:27.090Z,1.00
2022-12-20T02:51:55.408Z,0.70
2022-12-20T02:54:23.732Z,0.70
2022-12-20T02:56:52.216Z,0.70
2022-12-20T02:59:21.879Z,0.70
2022-12-20T03:01:50.617Z,0.87
2022-12-20T03:04:20.336Z,0.73
2022-12-20T03:06:58.617Z,1.07
2022-12-20T03:09:26.933Z,0.97
2022-12-20T03:11:55.209Z,0.83
2022-12-20T03:14:23.596Z,1.27
2022-12-20T03:16:51.997Z,0.70
2022-12-20T03:19:21.731Z,1.00
2022-12-20T03:21:50.008Z,0.87
2022-12-20T03:24:18.281Z,1.00
2022-12-20T03:26:46.549Z,0.80
2022-12-20T03:29:14.830Z,0.60
2022-12-20T03:31:43.223Z,1.27
2022-12-20T03:34:11.494Z,0.70
2022-12-20T03:36:41.146Z,0.60
2022-12-20T03:39:09.475Z,1.07
2022-12-20T03:41:37.727Z,0.70
2022-12-20T03:44:06.306Z,0.97
2022-12-20T03:46:34.779Z,0.83
2022-12-20T03:49:03.118Z,0.80
2022-12-20T03:51:31.403Z,0.60
2022-12-20T03:54:01.035Z,0.87
2022-12-20T03:56:29.266Z,0.73
2022-12-20T03:58:57.584Z,0.70
2022-12-20T04:01:27.885Z,0.87
2022-12-20T04:03:56.350Z,0.70
2022-12-20T04:06:24.722Z,0.90
2022-12-20T04:08:52.965Z,0.87
2022-12-20T04:11:22.588Z,0.77
2022-12-20T04:13:51.163Z,0.90
2022-12-20T04:16:20.856Z,0.73
2022-12-20T04:18:49.176Z,0.77
2022-12-20T04:21:17.724Z,0.80
2022-12-20T04:23:45.990Z,0.80
2022-12-20T04:26:14.368Z,0.67
2022-12-20T04:28:43.995Z,0.60
2022-12-20T04:31:12.678Z,0.77
2022-12-20T04:33:41.797Z,0.70
2022-12-20T04:36:10.365Z,0.77
2022-12-20T04:38:38.629Z,0.83
2022-12-20T04:41:07.143Z,0.73
2022-12-20T04:43:35.429Z,0.60
2022-12-20T04:46:05.073Z,0.80
2022-12-20T04:51:21.652Z,0.40
2022-12-20T04:53:48.963Z,0.77
2022-12-20T04:56:18.253Z,0.60
2022-12-20T04:58:46.647Z,0.87
2022-12-20T05:01:16.321Z,0.80
2022-12-20T05:03:44.955Z,0.60
2022-12-20T05:06:13.303Z,0.37
2022-12-20T05:08:41.558Z,0.67
2022-12-20T05:11:09.826Z,0.43
2022-12-20T05:13:38.114Z,0.43
2022-12-20T05:16:06.701Z,0.60
2022-12-20T05:18:36.391Z,0.70
2022-12-20T05:21:22.114Z,0.50
2022-12-20T05:24:08.033Z,0.60
2022-12-20T05:26:36.686Z,0.90
2022-12-20T05:29:05.028Z,0.50
2022-12-20T05:31:33.387Z,0.60
2022-12-20T05:34:03.087Z,0.60
2022-12-20T05:36:31.329Z,0.67
2022-12-20T05:39:04.018Z,0.93
2022-12-20T05:41:32.988Z,0.80
2022-12-20T05:44:01.921Z,0.90
2022-12-20T05:46:30.178Z,0.63
2022-12-20T05:48:58.479Z,0.50
2022-12-20T05:51:28.099Z,0.80
2022-12-20T05:53:56.318Z,0.50
2022-12-20T05:56:24.613Z,0.67
2022-12-20T05:58:52.860Z,0.50
2022-12-20T06:01:21.180Z,0.70
2022-12-20T06:03:51.095Z,0.77
2022-12-20T06:06:19.432Z,0.70
2022-12-20T06:08:49.132Z,0.40
2022-12-20T06:11:17.390Z,0.60
2022-12-20T06:13:45.670Z,0.60
2022-12-20T06:16:13.987Z,0.63
2022-12-20T06:18:42.333Z,0.70
2022-12-20T06:21:10.659Z,0.80
2022-12-20T06:23:38.917Z,0.60
2022-12-20T06:26:09.948Z,0.40
2022-12-20T06:28:42.617Z,0.60
2022-12-20T06:31:11.269Z,0.70
2022-12-20T06:33:39.913Z,0.50
2022-12-20T06:36:08.420Z,0.70
2022-12-20T06:38:36.931Z,0.40
2022-12-20T06:41:05.473Z,0.77
2022-12-20T06:43:35.197Z,0.50
2022-12-20T06:46:03.536Z,0.63
2022-12-20T06:48:31.825Z,0.50
2022-12-20T06:51:00.173Z,0.50
2022-12-20T06:53:28.636Z,0.50
2022-12-20T06:55:56.923Z,0.53
2022-12-20T06:58:25.164Z,0.90
2022-12-20T07:00:54.990Z,0.50
2022-12-20T07:03:23.452Z,0.53
2022-12-20T07:05:53.416Z,0.50
2022-12-20T07:08:21.756Z,0.80
2022-12-20T07:10:49.995Z,0.70
2022-12-20T07:13:18.233Z,0.60
2022-12-20T07:15:46.734Z,0.80
2022-12-20T07:18:16.356Z,0.67
2022-12-20T07:20:44.633Z,0.43
2022-12-20T07:23:12.997Z,0.60
2022-12-20T07:25:41.480Z,0.80
2022-12-20T07:28:09.778Z,0.80
2022-12-20T07:30:38.946Z,0.70
2022-12-20T07:33:07.608Z,0.70
2022-12-20T07:35:37.302Z,0.80
2022-12-20T07:38:05.810Z,0.67
2022-12-20T07:40:34.203Z,0.70
2022-12-20T07:43:02.441Z,0.47
2022-12-20T07:45:30.876Z,0.47
2022-12-20T07:48:04.885Z,0.63
2022-12-20T07:50:39.160Z,0.50
2022-12-20T07:53:07.471Z,0.47
2022-12-20T07:55:36.484Z,0.50
2022-12-20T07:58:06.790Z,0.40
2022-12-20T08:00:35.125Z,0.40
2022-12-20T08:03:04.368Z,0.70
2022-12-20T08:05:32.795Z,0.50
2022-12-20T08:08:02.593Z,0.50
2022-12-20T08:10:30.853Z,0.60
2022-12-20T08:12:59.764Z,0.83
2022-12-20T08:15:28.016Z,0.60
2022-12-20T08:17:56.273Z,0.50
2022-12-20T08:20:24.845Z,0.50
2022-12-20T08:22:53.122Z,0.60
2022-12-20T08:25:22.762Z,0.97
2022-12-20T08:27:51.336Z,0.77
2022-12-20T08:30:19.721Z,0.60
2022-12-20T08:32:47.974Z,0.40
2022-12-20T08:35:16.244Z,0.40
2022-12-20T08:37:44.483Z,0.70
2022-12-20T08:40:13.691Z,0.60
2022-12-20T08:42:43.333Z,0.53
2022-12-20T08:45:12.202Z,0.40
2022-12-20T08:47:40.665Z,0.60
2022-12-20T08:50:09.408Z,0.63
2022-12-20T08:52:37.654Z,0.50
2022-12-20T08:55:06.466Z,0.57
2022-12-20T08:57:35.294Z,0.50
2022-12-20T09:00:05.411Z,0.50
2022-12-20T09:02:33.872Z,0.80
2022-12-20T09:05:02.291Z,0.60
2022-12-20T09:07:30.583Z,0.40
2022-12-20T09:09:59.127Z,0.50
2022-12-20T09:12:27.421Z,0.80
2022-12-20T09:14:55.706Z,0.63
2022-12-20T09:17:25.503Z,0.30
2022-12-20T09:19:55.175Z,0.40
2022-12-20T09:22:23.723Z,0.57
2022-12-20T09:24:52.309Z,0.60
2022-12-20T09:27:20.607Z,0.50
2022-12-20T09:29:48.987Z,0.60
2022-12-20T09:32:17.341Z,0.40
2022-12-20T09:34:48.258Z,0.40
2022-12-20T09:37:16.552Z,0.50
2022-12-20T09:39:44.958Z,0.57
2022-12-20T09:42:16.201Z,0.40
2022-12-20T09:44:44.506Z,0.53
2022-12-20T09:47:13.259Z,0.40
2022-12-20T09:49:42.078Z,0.40
2022-12-20T09:52:31.608Z,0.50
2022-12-20T09:55:03.785Z,0.43
2022-12-20T09:57:33.504Z,0.33
2022-12-20T10:00:01.830Z,0.50
2022-12-20T10:05:20.504Z,0.47
2022-12-20T10:07:50.993Z,0.50
2022-12-20T10:10:37.375Z,0.50
2022-12-20T10:13:08.431Z,0.50
2022-12-20T10:15:38.225Z,0.50
2022-12-20T10:18:19.604Z,0.60
2022-12-20T10:20:49.191Z,0.57
2022-12-20T10:23:29.337Z,0.53
2022-12-20T10:26:02.325Z,0.50
2022-12-20T10:28:31.205Z,0.60
2022-12-20T10:31:00.858Z,0.50
2022-12-20T10:33:29.236Z,0.73
2022-12-20T10:35:57.542Z,0.40
2022-12-20T10:38:26.786Z,0.30
2022-12-20T10:43:52.204Z,0.70
2022-12-20T10:46:20.607Z,0.50
2022-12-20T10:48:49.111Z,0.80
2022-12-20T10:51:18.131Z,0.50
2022-12-20T10:53:56.718Z,0.70
2022-12-20T10:56:28.467Z,0.90
2022-12-20T10:58:57.808Z,0.43
2022-12-20T11:01:27.361Z,0.60
2022-12-20T11:03:57.170Z,0.93
2022-12-20T11:06:26.248Z,0.93
2022-12-20T11:09:00.531Z,0.87
2022-12-20T11:11:30.680Z,0.70
2022-12-20T11:13:59.035Z,0.60
2022-12-20T11:16:28.533Z,0.63
2022-12-20T11:18:58.634Z,0.70
2022-12-20T11:21:28.834Z,1.07
2022-12-20T11:23:59.466Z,1.00
2022-12-20T11:26:32.716Z,1.03
2022-12-20T11:29:05.255Z,1.00
2022-12-20T11:31:38.003Z,0.80
2022-12-20T11:34:10.229Z,0.83
2022-12-20T11:36:43.587Z,1.30
2022-12-20T11:39:14.992Z,1.83
2022-12-20T11:41:45.828Z,0.90
2022-12-20T11:44:26.191Z,1.20
2022-12-20T11:47:00.849Z,1.00
2022-12-20T11:49:34.576Z,1.00
2022-12-20T11:52:06.022Z,1.50
2022-12-20T11:54:34.993Z,1.63
2022-12-20T11:57:05.968Z,1.00
2022-12-20T11:59:37.047Z,1.20
2022-12-20T12:02:07.992Z,1.37
2022-12-20T12:04:37.712Z,0.90
2022-12-20T12:07:06.681Z,1.00
2022-12-20T12:09:35.374Z,1.67
2022-12-20T12:12:08.136Z,1.47
2022-12-20T12:14:40.647Z,1.23
2022-12-20T12:17:10.168Z,1.50
2022-12-20T12:19:38.755Z,1.40
2022-12-20T12:22:07.539Z,2.43
2022-12-20T12:24:39.302Z,1.00
2022-12-20T12:27:15.762Z,0.90
2022-12-20T12:29:44.618Z,1.63
2022-12-20T12:32:16.102Z,1.23
2022-12-20T12:34:48.059Z,1.40
2022-12-20T12:37:23.573Z,1.53
2022-12-20T12:40:02.843Z,1.03
2022-12-20T12:42:43.562Z,1.17
2022-12-20T12:45:16.121Z,2.53
2022-12-20T12:47:46.467Z,2.07
2022-12-20T12:50:18.557Z,1.50
2022-12-20T12:52:47.352Z,1.33
2022-12-20T12:55:36.832Z,2.00
2022-12-20T12:58:16.309Z,1.30
2022-12-20T13:00:51.099Z,1.50
2022-12-20T13:03:36.742Z,1.50
2022-12-20T13:06:19.975Z,1.27
2022-12-20T13:08:51.975Z,2.20
2022-12-20T13:11:30.211Z,1.80
2022-12-20T13:17:12.746Z,1.33
2022-12-20T13:19:41.987Z,2.00
2022-12-20T13:22:16.102Z,1.50
2022-12-20T13:24:57.336Z,1.93
2022-12-20T13:27:29.750Z,1.47
2022-12-20T13:29:59.370Z,1.33
2022-12-20T13:32:46.464Z,1.37
2022-12-20T13:38:25.081Z,1.27
2022-12-20T13:40:56.667Z,1.47
2022-12-20T13:43:26.281Z,1.20
2022-12-20T13:45:55.333Z,1.30
2022-12-20T13:48:24.725Z,1.03
2022-12-20T13:50:53.295Z,1.40
2022-12-20T13:53:22.354Z,1.17
2022-12-20T13:55:50.755Z,1.40
2022-12-20T13:58:20.689Z,1.07
2022-12-20T14:00:49.062Z,1.67
2022-12-20T14:03:22.106Z,1.20
2022-12-20T14:05:50.577Z,1.47
2022-12-20T14:08:19.809Z,2.23
2022-12-20T14:10:48.207Z,1.77
2022-12-20T14:13:21.674Z,1.40
2022-12-20T14:15:50.088Z,1.53
2022-12-20T14:18:19.005Z,1.27
2022-12-20T14:20:47.945Z,1.10
2022-12-20T14:23:16.950Z,1.10
2022-12-20T14:25:45.897Z,1.60
2022-12-20T14:28:24.769Z,1.30
2022-12-20T14:30:56.810Z,2.00
2022-12-20T14:33:28.148Z,1.33
2022-12-20T14:35:56.650Z,1.40
2022-12-20T14:38:25.633Z,0.90
2022-12-20T14:40:54.498Z,1.17
2022-12-20T14:43:27.114Z,0.70
2022-12-20T14:46:09.822Z,1.17
2022-12-20T14:48:38.243Z,1.37
2022-12-20T14:51:06.850Z,1.70
2022-12-20T14:53:36.093Z,1.17
2022-12-20T14:56:05.845Z,0.87
2022-12-20T14:58:34.731Z,1.07
2022-12-20T15:01:03.831Z,0.80
2022-12-20T15:03:33.745Z,1.10
2022-12-20T15:06:02.320Z,1.37
2022-12-20T15:08:32.368Z,0.97
2022-12-20T15:11:03.440Z,0.87
2022-12-20T15:13:32.598Z,1.50
2022-12-20T15:16:01.987Z,1.67
2022-12-20T15:18:30.334Z,1.27
2022-12-20T15:21:12.456Z,1.13
2022-12-20T15:23:41.892Z,1.10
2022-12-20T15:26:10.750Z,1.00
2022-12-20T15:28:39.066Z,0.93
2022-12-20T15:31:07.492Z,1.23
2022-12-20T15:33:36.305Z,1.23
2022-12-20T15:36:04.982Z,0.70
2022-12-20T15:39:10.579Z,0.67
2022-12-20T15:41:23.833Z,1.03
2022-12-20T15:43:52.703Z,0.87
2022-12-20T15:46:21.052Z,1.20
2022-12-20T15:48:49.417Z,1.20
2022-12-20T15:51:18.533Z,1.20
2022-12-20T15:53:48.197Z,1.10
2022-12-20T15:56:18.646Z,1.10
2022-12-20T15:58:47.482Z,1.00
2022-12-20T16:01:16.025Z,0.73
2022-12-20T16:03:44.520Z,1.10
2022-12-20T16:06:13.714Z,0.73
2022-12-20T16:08:42.191Z,0.67
2022-12-20T16:11:16.731Z,0.90
2022-12-20T16:13:45.906Z,0.70
2022-12-20T16:16:14.919Z,0.90
2022-12-20T16:18:45.083Z,0.97
2022-12-20T16:21:15.816Z,0.70
2022-12-20T16:23:44.142Z,0.87
2022-12-20T16:26:16.235Z,0.97
2022-12-20T16:28:45.415Z,0.50
2022-12-20T16:31:18.192Z,0.70
2022-12-20T16:33:46.512Z,0.70
2022-12-20T16:36:15.448Z,0.80
2022-12-20T16:38:44.807Z,0.73
2022-12-20T16:41:15.517Z,0.80
2022-12-20T16:43:43.842Z,1.10
2022-12-20T16:46:12.932Z,0.70
2022-12-20T16:48:41.808Z,0.57
2022-12-20T16:51:31.638Z,0.77
2022-12-20T16:56:51.996Z,0.60
2022-12-20T16:59:22.851Z,0.83
2022-12-20T17:01:52.194Z,0.80
2022-12-20T17:04:21.562Z,0.60
2022-12-20T17:06:49.997Z,1.00
2022-12-20T17:09:18.393Z,0.60
2022-12-20T17:11:46.764Z,0.70
2022-12-20T17:14:18.215Z,1.10
2022-12-20T17:16:46.588Z,0.73
2022-12-20T17:19:14.952Z,0.60
2022-12-20T17:24:30.782Z,0.50
2022-12-20T17:27:00.202Z,1.00
2022-12-20T17:29:30.104Z,0.77
2022-12-20T17:31:58.545Z,0.70
2022-12-20T17:34:27.331Z,0.67
2022-12-20T17:36:56.364Z,0.53
2022-12-20T17:39:24.785Z,0.90
2022-12-20T17:41:54.162Z,0.80
2022-12-20T17:44:23.560Z,0.73
2022-12-20T17:46:53.297Z,0.60
2022-12-20T17:49:23.068Z,0.77
2022-12-20T17:51:51.990Z,0.73
2022-12-20T17:54:20.885Z,0.83
2022-12-20T17:56:49.703Z,0.67
2022-12-20T17:59:18.414Z,0.97
2022-12-20T18:01:46.914Z,0.40
2022-12-20T18:04:17.389Z,0.60
2022-12-20T18:06:46.263Z,0.80
2022-12-20T18:09:14.857Z,0.50
2022-12-20T18:11:43.251Z,0.70
2022-12-20T18:14:11.639Z,1.07
2022-12-20T18:16:40.472Z,0.57
2022-12-20T18:19:09.102Z,0.50
2022-12-20T18:21:38.806Z,0.80
2022-12-20T18:24:07.476Z,0.60
2022-12-20T18:26:35.780Z,0.60
2022-12-20T18:29:04.424Z,0.70
2022-12-20T18:31:33.839Z,0.67
2022-12-20T18:34:02.536Z,0.53
2022-12-20T18:36:31.265Z,0.97
2022-12-20T18:39:01.123Z,0.70
2022-12-20T18:41:29.934Z,0.63
2022-12-20T18:43:58.609Z,0.70
2022-12-20T18:46:27.032Z,0.90
2022-12-20T18:48:55.885Z,1.07
2022-12-20T18:51:24.480Z,1.20
2022-12-20T18:53:55.131Z,0.90
2022-12-20T18:56:25.347Z,0.80
2022-12-20T18:58:53.690Z,1.03
2022-12-20T19:01:22.688Z,0.80
2022-12-20T19:03:51.726Z,0.70
2022-12-20T19:06:20.202Z,0.90
2022-12-20T19:08:48.812Z,0.90
2022-12-20T19:11:17.563Z,0.60
2022-12-20T19:13:47.216Z,0.63
2022-12-20T19:16:16.774Z,0.57
2022-12-20T19:18:45.161Z,0.77
2022-12-20T19:21:14.025Z,0.70
2022-12-20T19:23:42.578Z,0.73
2022-12-20T19:26:11.780Z,1.13
2022-12-20T19:28:40.270Z,0.93
2022-12-20T19:31:14.220Z,1.00
2022-12-20T19:33:46.272Z,1.17
2022-12-20T19:36:15.247Z,0.90
2022-12-20T19:38:44.259Z,0.70
2022-12-20T19:41:13.286Z,0.80
2022-12-20T19:43:41.936Z,0.93
2022-12-20T19:46:11.674Z,0.67
2022-12-20T19:48:40.106Z,0.80
2022-12-20T19:51:10.175Z,1.00
2022-12-20T19:53:38.677Z,0.90
2022-12-20T19:56:08.549Z,0.83
2022-12-20T19:58:37.009Z,1.07
2022-12-20T20:01:05.533Z,1.00
2022-12-20T20:03:35.379Z,0.70
2022-12-20T20:06:03.782Z,0.93
2022-12-20T20:08:32.121Z,0.90
2022-12-20T20:11:07.164Z,0.77
2022-12-20T20:13:37.614Z,1.07
2022-12-20T20:16:06.599Z,0.70
2022-12-20T20:18:36.487Z,1.07
2022-12-20T20:21:07.272Z,0.90
2022-12-20T20:23:36.612Z,1.27
2022-12-20T20:26:07.746Z,1.03
2022-12-20T20:28:43.692Z,0.87
2022-12-20T20:31:13.997Z,1.10
2022-12-20T20:33:43.946Z,0.80
2022-12-20T20:36:12.434Z,0.83
2022-12-20T20:38:40.794Z,1.10
2022-12-20T20:41:09.134Z,0.80
2022-12-20T20:43:38.331Z,1.17
2022-12-20T20:46:07.108Z,0.93
2022-12-20T20:48:35.572Z,1.20
2022-12-20T20:51:05.470Z,1.03
2022-12-20T20:53:34.521Z,1.10
2022-12-20T20:56:02.987Z,1.43
2022-12-20T20:58:31.302Z,0.80
2022-12-20T21:00:59.809Z,1.20
2022-12-20T21:03:28.236Z,0.90
2022-12-20T21:08:46.326Z,1.30
2022-12-20T21:11:14.767Z,0.80
2022-12-20T21:13:43.193Z,1.10
2022-12-20T21:16:11.989Z,1.13
2022-12-20T21:18:40.388Z,1.27
2022-12-20T21:21:09.410Z,1.20
2022-12-20T21:23:37.785Z,1.53
2022-12-20T21:26:07.741Z,1.17
2022-12-20T21:28:36.060Z,1.20
2022-12-20T21:31:05.064Z,1.17
2022-12-20T21:33:33.370Z,1.13
2022-12-20T21:36:02.041Z,1.00
2022-12-20T21:38:30.602Z,0.87
2022-12-20T21:41:02.501Z,1.10
2022-12-20T21:43:32.332Z,1.07
2022-12-20T21:46:00.632Z,0.90
2022-12-20T21:48:29.655Z,0.90
2022-12-20T21:51:01.775Z,1.23
2022-12-20T21:53:30.085Z,0.90
2022-12-20T21:55:58.811Z,1.33
2022-12-20T21:58:27.337Z,0.90
2022-12-20T22:00:57.271Z,1.40
2022-12-20T22:03:25.818Z,0.93
2022-12-20T22:05:54.915Z,1.00
2022-12-20T22:08:23.303Z,0.90
2022-12-20T22:10:52.637Z,1.07
2022-12-20T22:13:21.155Z,0.70
2022-12-20T22:15:49.468Z,0.63
2022-12-20T22:18:19.120Z,1.03
2022-12-20T22:20:47.453Z,1.10
2022-12-20T22:23:15.740Z,0.93
2022-12-20T22:25:44.244Z,1.03
2022-12-20T22:28:12.811Z,1.30
2022-12-20T22:30:42.070Z,0.63
2022-12-20T22:33:10.454Z,0.97
2022-12-20T22:35:41.112Z,0.87
2022-12-20T22:38:09.409Z,0.90
2022-12-20T22:40:37.764Z,0.93
2022-12-20T22:43:06.039Z,53.77
2022-12-20T22:45:34.471Z,79.90
2022-12-20T22:48:02.796Z,96.57
2022-12-20T22:50:31.066Z,127.63
2022-12-20T22:53:01.351Z,120.53
2022-12-20T22:55:29.608Z,98.80
2022-12-20T22:57:57.893Z,92.00
2022-12-20T23:00:26.134Z,82.73
2022-12-20T23:02:54.618Z,73.17
2022-12-20T23:05:23.045Z,66.63
2022-12-20T23:07:51.330Z,60.10
2022-12-20T23:10:35.211Z,53.30
2022-12-20T23:13:17.420Z,52.47
2022-12-20T23:15:45.709Z,50.87
2022-12-20T23:18:13.993Z,43.07
2022-12-20T23:20:59.764Z,47.03
2022-12-20T23:23:28.046Z,37.93
2022-12-20T23:25:57.702Z,39.20
2022-12-20T23:28:26.036Z,33.77
2022-12-20T23:30:54.370Z,31.83
2022-12-20T23:33:22.692Z,29.67
2022-12-20T23:35:57.648Z,31.03
2022-12-20T23:38:26.130Z,27.80
2022-12-20T23:40:54.485Z,25.20
2022-12-20T23:43:24.161Z,24.13
2022-12-20T23:45:52.477Z,23.17
2022-12-20T23:48:20.796Z,22.53
2022-12-20T23:50:56.438Z,20.47
2022-12-20T23:53:24.722Z,19.17
2022-12-20T23:55:57.893Z,18.87
2022-12-20T23:58:27.531Z,18.17
